createdAt,value
2019-01-09T00:00:49.559Z,100588.91
2019-01-09T00:01:53.195Z,100592.80
2019-01-09T00:02:56.806Z,100597.48
2019-01-09T00:04:00.399Z,100594.22
2019-01-09T00:05:04.410Z,100585.97
2019-01-09T00:06:08.184Z,100582.98
2019-01-09T00:07:11.835Z,100583.87
2019-01-09T00:08:15.461Z,100586.62
2019-01-09T00:09:18.979Z,100575.14
2019-01-09T00:10:22.605Z,100577.88
2019-01-09T00:11:26.245Z,100583.38
2019-01-09T00:12:29.898Z,100576.84
2019-01-09T00:13:33.452Z,100586.78
2019-01-09T00:14:37.042Z,100578.53
2019-01-09T00:15:40.763Z,100575.30
2019-01-09T00:16:44.345Z,100576.67
2019-01-09T00:17:47.990Z,100576.44
2019-01-09T00:18:51.615Z,100575.30
2019-01-09T00:19:55.283Z,100579.19
2019-01-09T00:20:58.867Z,100578.94
2019-01-09T00:22:02.654Z,100576.52
2019-01-09T00:23:06.400Z,100574.86
2019-01-09T00:24:10.083Z,100580.13
2019-01-09T00:25:13.938Z,100586.19
2019-01-09T00:26:17.713Z,100577.70
2019-01-09T00:27:21.283Z,100568.08
2019-01-09T00:28:24.773Z,100588.45
2019-01-09T00:29:28.415Z,100584.89
2019-01-09T00:30:32.051Z,100577.21
2019-01-09T00:31:35.731Z,100586.02
2019-01-09T00:32:39.416Z,100586.34
2019-01-09T00:33:43.035Z,100582.22
2019-01-09T00:34:46.676Z,100583.59
2019-01-09T00:35:50.243Z,100579.55
2019-01-09T00:36:53.870Z,100591.11
2019-01-09T00:37:57.563Z,100586.98
2019-01-09T00:39:01.219Z,100589.01
2019-01-09T00:40:06.171Z,100586.83
2019-01-09T00:41:09.898Z,100589.81
2019-01-09T00:42:13.595Z,100580.52
2019-01-09T00:43:17.269Z,100582.99
2019-01-09T00:44:20.881Z,100583.56
2019-01-09T00:45:24.550Z,100584.12
2019-01-09T00:46:28.279Z,100580.64
2019-01-09T00:47:31.907Z,100583.39
2019-01-09T00:48:35.578Z,100586.71
2019-01-09T00:49:39.159Z,100584.28
2019-01-09T00:50:45.472Z,100583.47
2019-01-09T00:51:49.047Z,100588.16
2019-01-09T00:52:52.773Z,100587.91
2019-01-09T00:53:56.336Z,100593.17
2019-01-09T00:54:59.978Z,100592.36
2019-01-09T00:56:03.610Z,100593.73
2019-01-09T00:57:07.647Z,100598.42
2019-01-09T00:58:11.342Z,100595.43
2019-01-09T00:59:15.129Z,100598.17
2019-01-09T01:00:21.102Z,100595.19
2019-01-09T01:01:24.705Z,100596.56
2019-01-09T01:02:43.116Z,100591.62
2019-01-09T01:03:52.345Z,100596.31
2019-01-09T01:05:20.983Z,100591.67
2019-01-09T01:06:49.880Z,100595.55
2019-01-09T01:08:05.186Z,100601.05
2019-01-09T01:09:20.619Z,100593.45
2019-01-09T01:10:50.961Z,100592.07
2019-01-09T01:11:57.572Z,100594.58
2019-01-09T01:13:27.643Z,100602.58
2019-01-09T01:14:50.593Z,100597.64
2019-01-09T01:16:13.575Z,100597.16
2019-01-09T01:17:25.814Z,100594.16
2019-01-09T01:18:55.618Z,100591.98
2019-01-09T01:20:27.486Z,100593.36
2019-01-09T01:21:34.016Z,100599.70
2019-01-09T01:22:49.124Z,100599.70
2019-01-09T01:24:04.627Z,100589.84
2019-01-09T01:25:17.196Z,100595.63
2019-01-09T01:26:26.701Z,100586.58
2019-01-09T01:27:33.229Z,100583.59
2019-01-09T01:28:59.214Z,100582.77
2019-01-09T01:30:14.465Z,100589.64
2019-01-09T01:31:55.720Z,100583.09
2019-01-09T01:33:05.064Z,100588.59
2019-01-09T01:34:29.348Z,100593.03
2019-01-09T01:35:35.882Z,100599.09
2019-01-09T01:37:10.548Z,100588.10
2019-01-09T01:38:28.850Z,100593.03
2019-01-09T01:39:41.129Z,100596.02
2019-01-09T01:40:47.687Z,100597.39
2019-01-09T01:42:02.877Z,100591.09
2019-01-09T01:43:18.216Z,100595.21
2019-01-09T01:44:30.373Z,100594.65
2019-01-09T01:45:48.850Z,100586.97
2019-01-09T01:47:07.365Z,100599.33
2019-01-09T01:48:19.695Z,100601.83
2019-01-09T01:49:26.233Z,100601.83
2019-01-09T01:50:56.702Z,100593.59
2019-01-09T01:52:12.045Z,100600.46
2019-01-09T01:53:24.345Z,100597.72
2019-01-09T01:54:45.923Z,100600.46
2019-01-09T01:56:08.701Z,100597.22
2019-01-09T01:57:33.296Z,100604.34
2019-01-09T01:58:45.627Z,100594.23
2019-01-09T01:59:55.045Z,100597.79
2019-01-09T02:01:04.491Z,100594.80
2019-01-09T02:02:25.948Z,100590.67
2019-01-09T02:03:54.776Z,100595.36
2019-01-09T02:05:10.302Z,100595.68
2019-01-09T02:06:16.828Z,100594.88
2019-01-09T02:07:35.028Z,100598.75
2019-01-09T02:09:06.869Z,100602.55
2019-01-09T02:10:28.059Z,100589.45
2019-01-09T02:11:34.654Z,100590.83
2019-01-09T02:12:49.786Z,100592.48
2019-01-09T02:14:14.146Z,100592.00
2019-01-09T02:15:38.436Z,100601.85
2019-01-09T02:16:47.845Z,100591.75
2019-01-09T02:18:04.078Z,100590.70
2019-01-09T02:19:10.636Z,100591.51
2019-01-09T02:20:17.172Z,100586.89
2019-01-09T02:21:41.650Z,100588.27
2019-01-09T02:23:08.820Z,100590.77
2019-01-09T02:24:31.764Z,100585.03
2019-01-09T02:25:41.193Z,100586.97
2019-01-09T02:26:56.781Z,100584.78
2019-01-09T02:28:19.680Z,100583.98
2019-01-09T02:29:32.068Z,100599.64
2019-01-09T02:30:55.047Z,100591.41
2019-01-09T02:32:07.476Z,100594.16
2019-01-09T02:33:11.072Z,100585.11
2019-01-09T02:34:14.638Z,100600.77
2019-01-09T02:35:18.214Z,100603.52
2019-01-09T02:36:21.789Z,100596.66
2019-01-09T02:37:25.308Z,100601.90
2019-01-09T02:38:28.813Z,100604.64
2019-01-09T02:39:32.376Z,100602.46
2019-01-09T02:40:35.915Z,100600.53
2019-01-09T02:41:39.525Z,100598.63
2019-01-09T02:42:43.356Z,100604.40
2019-01-09T02:43:47.086Z,100597.53
2019-01-09T02:44:50.725Z,100597.78
2019-01-09T02:45:54.295Z,100601.09
2019-01-09T02:46:57.993Z,100602.46
2019-01-09T02:48:01.508Z,100605.45
2019-01-09T02:49:05.121Z,100606.02
2019-01-09T02:50:08.697Z,100607.39
2019-01-09T02:51:12.187Z,100596.41
2019-01-09T02:52:15.702Z,100601.90
2019-01-09T02:53:19.339Z,100603.56
2019-01-09T02:54:22.899Z,100605.77
2019-01-09T02:55:26.547Z,100600.28
2019-01-09T02:56:30.068Z,100591.20
2019-01-09T02:57:33.667Z,100595.32
2019-01-09T02:58:37.318Z,100591.77
2019-01-09T02:59:40.878Z,100587.41
2019-01-09T03:00:47.306Z,100596.45
2019-01-09T03:01:52.573Z,100601.38
2019-01-09T03:02:56.098Z,100603.88
2019-01-09T03:03:59.737Z,100604.13
2019-01-09T03:05:03.373Z,100616.80
2019-01-09T03:06:06.940Z,100612.11
2019-01-09T03:07:10.510Z,100620.91
2019-01-09T03:08:14.096Z,100615.98
2019-01-09T03:09:17.615Z,100621.72
2019-01-09T03:10:21.160Z,100614.86
2019-01-09T03:11:24.661Z,100621.47
2019-01-09T03:12:28.304Z,100618.17
2019-01-09T03:13:31.823Z,100617.60
2019-01-09T03:14:35.400Z,100615.17
2019-01-09T03:15:39.045Z,100626.72
2019-01-09T03:16:42.553Z,100623.17
2019-01-09T03:17:46.186Z,100625.34
2019-01-09T03:18:49.774Z,100621.23
2019-01-09T03:19:53.271Z,100620.98
2019-01-09T03:20:56.901Z,100623.73
2019-01-09T03:22:00.492Z,100619.36
2019-01-09T03:23:04.116Z,100617.75
2019-01-09T03:24:07.694Z,100620.48
2019-01-09T03:25:11.289Z,100630.09
2019-01-09T03:26:14.858Z,100618.31
2019-01-09T03:27:18.528Z,100612.01
2019-01-09T03:28:22.121Z,100617.25
2019-01-09T03:29:25.748Z,100609.34
2019-01-09T03:30:29.387Z,100609.09
2019-01-09T03:31:33.011Z,100614.02
2019-01-09T03:32:36.738Z,100616.27
2019-01-09T03:33:40.262Z,100614.08
2019-01-09T03:34:43.904Z,100615.21
2019-01-09T03:35:47.457Z,100617.12
2019-01-09T03:36:51.128Z,100615.25
2019-01-09T03:37:54.694Z,100609.52
2019-01-09T03:38:58.301Z,100615.00
2019-01-09T03:40:01.991Z,100610.08
2019-01-09T03:41:05.625Z,100617.50
2019-01-09T03:42:09.190Z,100615.56
2019-01-09T03:43:12.960Z,100612.02
2019-01-09T03:44:16.579Z,100605.72
2019-01-09T03:45:20.229Z,100617.50
2019-01-09T03:46:23.850Z,100610.39
2019-01-09T03:47:27.468Z,100610.39
2019-01-09T03:48:31.006Z,100614.76
2019-01-09T03:49:34.487Z,100615.88
2019-01-09T03:50:38.073Z,100610.14
2019-01-09T03:51:41.593Z,100615.64
2019-01-09T03:52:46.603Z,100621.94
2019-01-09T03:53:50.202Z,100625.24
2019-01-09T03:54:53.677Z,100621.44
2019-01-09T03:55:57.221Z,100614.89
2019-01-09T03:57:00.729Z,100608.28
2019-01-09T03:58:04.347Z,100608.59
2019-01-09T03:59:07.946Z,100609.97
2019-01-09T04:00:11.598Z,100604.48
2019-01-09T04:01:15.216Z,100613.28
2019-01-09T04:02:18.828Z,100616.58
2019-01-09T04:03:24.386Z,100614.41
2019-01-09T04:04:27.713Z,100618.52
2019-01-09T04:05:31.262Z,100611.66
2019-01-09T04:06:41.808Z,100617.95
2019-01-09T04:07:40.133Z,100605.36
2019-01-09T04:08:43.778Z,100611.66
2019-01-09T04:09:47.342Z,100605.67
2019-01-09T04:10:50.929Z,100605.11
2019-01-09T04:11:54.491Z,100596.87
2019-01-09T04:12:57.979Z,100604.30
2019-01-09T04:14:01.581Z,100592.23
2019-01-09T04:15:06.536Z,100594.45
2019-01-09T04:16:10.052Z,100590.87
2019-01-09T04:17:13.634Z,100594.17
2019-01-09T04:18:17.117Z,100599.09
2019-01-09T04:19:20.638Z,100592.80
2019-01-09T04:20:24.155Z,100590.62
2019-01-09T04:21:27.631Z,100589.25
2019-01-09T04:22:31.150Z,100592.55
2019-01-09T04:23:34.782Z,100597.80
2019-01-09T04:24:38.299Z,100599.41
2019-01-09T04:25:41.992Z,100608.21
2019-01-09T04:26:45.474Z,100610.39
2019-01-09T04:27:49.001Z,100613.70
2019-01-09T04:28:52.488Z,100615.06
2019-01-09T04:29:56.050Z,100615.88
2019-01-09T04:30:59.599Z,100613.70
2019-01-09T04:32:03.119Z,100623.86
2019-01-09T04:33:06.653Z,100634.59
2019-01-09T04:34:10.166Z,100631.28
2019-01-09T04:35:13.717Z,100628.30
2019-01-09T04:36:17.283Z,100622.81
2019-01-09T04:37:20.768Z,100621.50
2019-01-09T04:38:24.249Z,100609.41
2019-01-09T04:39:27.752Z,100618.44
2019-01-09T04:40:31.321Z,100627.80
2019-01-09T04:41:34.876Z,100627.87
2019-01-09T04:42:38.452Z,100631.36
2019-01-09T04:43:41.943Z,100644.27
2019-01-09T04:44:45.453Z,100642.08
2019-01-09T04:45:48.944Z,100643.70
2019-01-09T04:46:52.469Z,100651.13
2019-01-09T04:47:56.038Z,100641.27
2019-01-09T04:48:59.542Z,100643.45
2019-01-09T04:50:03.208Z,100641.83
2019-01-09T04:51:06.895Z,100641.83
2019-01-09T04:52:10.487Z,100636.10
2019-01-09T04:53:14.065Z,100642.71
2019-01-09T04:54:17.635Z,100648.20
2019-01-09T04:55:21.193Z,100652.31
2019-01-09T04:56:24.690Z,100660.30
2019-01-09T04:57:28.321Z,100654.00
2019-01-09T04:58:31.825Z,100652.38
2019-01-09T04:59:35.318Z,100639.22
2019-01-09T05:00:38.883Z,100643.34
2019-01-09T05:01:42.477Z,100644.46
2019-01-09T05:02:46.083Z,100638.97
2019-01-09T05:03:49.573Z,100634.61
2019-01-09T05:04:53.081Z,100636.27
2019-01-09T05:05:56.631Z,100638.45
2019-01-09T05:07:00.918Z,100629.66
2019-01-09T05:08:04.697Z,100633.24
2019-01-09T05:09:08.281Z,100633.73
2019-01-09T05:10:11.777Z,100628.74
2019-01-09T05:11:15.310Z,100627.06
2019-01-09T05:12:18.819Z,100627.23
2019-01-09T05:13:22.457Z,100629.35
2019-01-09T05:14:26.155Z,100621.33
2019-01-09T05:15:29.805Z,100638.16
2019-01-09T05:16:33.372Z,100630.80
2019-01-09T05:17:37.008Z,100628.09
2019-01-09T05:18:40.581Z,100627.98
2019-01-09T05:19:44.106Z,100629.95
2019-01-09T05:20:47.680Z,100624.31
2019-01-09T05:21:51.318Z,100629.38
2019-01-09T05:22:54.841Z,100628.34
2019-01-09T05:23:58.368Z,100628.19
2019-01-09T05:25:02.111Z,100627.95
2019-01-09T05:26:05.679Z,100628.25
2019-01-09T05:27:09.184Z,100625.67
2019-01-09T05:28:12.680Z,100631.53
2019-01-09T05:29:16.352Z,100627.81
2019-01-09T05:30:19.841Z,100630.03
2019-01-09T05:31:23.467Z,100630.45
2019-01-09T05:32:26.979Z,100628.98
2019-01-09T05:33:30.457Z,100634.73
2019-01-09T05:34:34.118Z,100633.36
2019-01-09T05:35:37.788Z,100638.53
2019-01-09T05:36:43.587Z,100638.86
2019-01-09T05:37:47.165Z,100642.85
2019-01-09T05:38:50.755Z,100645.89
2019-01-09T05:39:54.292Z,100644.52
2019-01-09T05:40:57.815Z,100640.72
2019-01-09T05:42:01.401Z,100644.11
2019-01-09T05:43:05.036Z,100642.73
2019-01-09T05:44:08.539Z,100642.17
2019-01-09T05:45:12.239Z,100640.06
2019-01-09T05:46:15.967Z,100627.13
2019-01-09T05:47:19.541Z,100634.00
2019-01-09T05:48:23.185Z,100632.55
2019-01-09T05:49:26.674Z,100629.23
2019-01-09T05:50:30.273Z,100632.71
2019-01-09T05:51:33.781Z,100625.22
2019-01-09T05:52:37.330Z,100626.36
2019-01-09T05:53:40.836Z,100624.33
2019-01-09T05:54:44.335Z,100624.81
2019-01-09T05:55:47.937Z,100619.89
2019-01-09T05:56:51.507Z,100617.30
2019-01-09T05:57:55.072Z,100611.06
2019-01-09T05:58:58.579Z,100607.19
2019-01-09T06:00:02.210Z,100610.27
2019-01-09T06:01:05.795Z,100606.95
2019-01-09T06:02:09.318Z,100608.89
2019-01-09T06:03:12.876Z,100616.08
2019-01-09T06:04:16.523Z,100611.72
2019-01-09T06:05:20.084Z,100607.67
2019-01-09T06:06:23.623Z,100615.11
2019-01-09T06:07:27.134Z,100605.48
2019-01-09T06:08:30.625Z,100619.23
2019-01-09T06:09:34.124Z,100618.67
2019-01-09T06:10:37.605Z,100613.98
2019-01-09T06:11:41.138Z,100617.22
2019-01-09T06:12:44.704Z,100635.81
2019-01-09T06:13:48.195Z,100642.94
2019-01-09T06:14:51.764Z,100629.75
2019-01-09T06:15:55.268Z,100628.86
2019-01-09T06:16:58.817Z,100634.36
2019-01-09T06:18:02.484Z,100634.12
2019-01-09T06:19:05.973Z,100634.28
2019-01-09T06:20:09.551Z,100637.03
2019-01-09T06:21:13.111Z,100640.91
2019-01-09T06:22:16.704Z,100646.17
2019-01-09T06:23:20.209Z,100632.74
2019-01-09T06:24:23.701Z,100628.13
2019-01-09T06:25:27.225Z,100625.38
2019-01-09T06:26:30.843Z,100636.95
2019-01-09T06:27:34.360Z,100649.08
2019-01-09T06:28:37.866Z,100643.58
2019-01-09T06:29:41.428Z,100641.96
2019-01-09T06:30:44.920Z,100650.21
2019-01-09T06:31:48.458Z,100642.45
2019-01-09T06:32:51.981Z,100634.69
2019-01-09T06:33:55.652Z,100642.05
2019-01-09T06:34:59.268Z,100643.09
2019-01-09T06:36:04.013Z,100640.91
2019-01-09T06:37:07.576Z,100646.17
2019-01-09T06:38:11.084Z,100646.41
2019-01-09T06:39:14.578Z,100645.04
2019-01-09T06:40:18.143Z,100636.55
2019-01-09T06:41:21.673Z,100635.25
2019-01-09T06:42:25.250Z,100644.06
2019-01-09T06:43:28.836Z,100636.06
2019-01-09T06:44:32.397Z,100638.08
2019-01-09T06:45:35.965Z,100644.71
2019-01-09T06:46:39.447Z,100648.76
2019-01-09T06:47:42.944Z,100647.38
2019-01-09T06:48:46.601Z,100655.80
2019-01-09T06:49:50.095Z,100667.04
2019-01-09T06:50:53.635Z,100653.86
2019-01-09T06:51:57.237Z,100665.02
2019-01-09T06:53:00.759Z,100657.09
2019-01-09T06:54:04.387Z,100666.15
2019-01-09T06:55:07.957Z,100670.84
2019-01-09T06:56:11.553Z,100683.54
2019-01-09T06:57:15.079Z,100684.67
2019-01-09T06:58:20.192Z,100681.67
2019-01-09T06:59:23.938Z,100667.44
2019-01-09T07:00:27.484Z,100672.30
2019-01-09T07:01:31.008Z,100675.93
2019-01-09T07:02:34.577Z,100673.19
2019-01-09T07:03:38.049Z,100673.42
2019-01-09T07:04:41.653Z,100664.94
2019-01-09T07:05:45.138Z,100668.81
2019-01-09T07:06:48.625Z,100669.95
2019-01-09T07:07:52.126Z,100669.95
2019-01-09T07:08:55.692Z,100662.51
2019-01-09T07:10:00.912Z,100667.20
2019-01-09T07:11:04.646Z,100673.19
2019-01-09T07:12:08.247Z,100670.59
2019-01-09T07:13:11.892Z,100669.79
2019-01-09T07:14:15.357Z,100672.53
2019-01-09T07:15:19.015Z,100670.92
2019-01-09T07:16:22.656Z,100676.66
2019-01-09T07:17:26.266Z,100686.61
2019-01-09T07:18:29.774Z,100674.80
2019-01-09T07:19:33.358Z,100681.19
2019-01-09T07:20:36.930Z,100682.56
2019-01-09T07:21:45.537Z,100685.64
2019-01-09T07:22:45.859Z,100679.65
2019-01-09T07:23:49.418Z,100683.85
2019-01-09T07:24:53.066Z,100686.33
2019-01-09T07:25:56.603Z,100686.03
2019-01-09T07:27:00.212Z,100687.98
2019-01-09T07:28:03.807Z,100683.53
2019-01-09T07:29:09.299Z,100682.97
2019-01-09T07:30:13.448Z,100684.09
2019-01-09T07:31:17.309Z,100684.83
2019-01-09T07:32:20.932Z,100679.81
2019-01-09T07:33:24.429Z,100687.58
2019-01-09T07:34:28.062Z,100683.20
2019-01-09T07:35:31.654Z,100680.45
2019-01-09T07:36:35.263Z,100690.33
2019-01-09T07:37:44.965Z,100685.95
2019-01-09T07:38:45.014Z,100680.95
2019-01-09T07:39:48.635Z,100689.69
2019-01-09T07:40:52.126Z,100684.02
2019-01-09T07:41:55.665Z,100681.27
2019-01-09T07:42:59.228Z,100691.22
2019-01-09T07:44:02.807Z,100685.52
2019-01-09T07:45:08.453Z,100687.53
2019-01-09T07:46:11.938Z,100691.81
2019-01-09T07:47:15.490Z,100691.64
2019-01-09T07:48:23.475Z,100694.44
2019-01-09T07:49:26.967Z,100692.02
2019-01-09T07:50:30.474Z,100691.52
2019-01-09T07:51:33.979Z,100693.46
2019-01-09T07:52:37.509Z,100691.92
2019-01-09T07:53:41.163Z,100694.98
2019-01-09T07:54:44.716Z,100699.43
2019-01-09T07:55:48.238Z,100697.05
2019-01-09T07:56:51.793Z,100696.31
2019-01-09T07:57:55.372Z,100693.63
2019-01-09T07:58:58.888Z,100692.58
2019-01-09T08:00:02.445Z,100701.14
2019-01-09T08:01:06.012Z,100703.72
2019-01-09T08:02:09.621Z,100698.22
2019-01-09T08:03:13.269Z,100707.07
2019-01-09T08:04:16.779Z,100703.83
2019-01-09T08:05:20.287Z,100709.58
2019-01-09T08:06:23.800Z,100704.64
2019-01-09T08:07:27.303Z,100704.89
2019-01-09T08:08:30.828Z,100709.02
2019-01-09T08:09:34.324Z,100712.84
2019-01-09T08:10:37.833Z,100713.66
2019-01-09T08:11:41.376Z,100717.14
2019-01-09T08:12:45.120Z,100714.00
2019-01-09T08:13:48.692Z,100716.11
2019-01-09T08:14:52.247Z,100712.80
2019-01-09T08:15:55.819Z,100716.60
2019-01-09T08:16:59.294Z,100717.61
2019-01-09T08:18:02.802Z,100719.97
2019-01-09T08:19:06.343Z,100718.20
2019-01-09T08:20:10.157Z,100716.02
2019-01-09T08:21:13.738Z,100714.72
2019-01-09T08:22:17.353Z,100713.66
2019-01-09T08:23:20.904Z,100717.05
2019-01-09T08:24:24.679Z,100723.72
2019-01-09T08:25:28.278Z,100723.79
2019-01-09T08:26:32.030Z,100721.44
2019-01-09T08:27:35.631Z,100731.13
2019-01-09T08:28:39.178Z,100727.08
2019-01-09T08:29:42.783Z,100729.58
2019-01-09T08:30:46.342Z,100726.83
2019-01-09T08:31:49.826Z,100727.95
2019-01-09T08:32:53.348Z,100720.20
2019-01-09T08:33:56.916Z,100717.14
2019-01-09T08:35:00.615Z,100718.13
2019-01-09T08:36:04.180Z,100727.67
2019-01-09T08:37:07.675Z,100725.16
2019-01-09T08:38:11.182Z,100727.55
2019-01-09T08:39:14.734Z,100734.03
2019-01-09T08:40:18.243Z,100734.94
2019-01-09T08:41:21.963Z,100743.63
2019-01-09T08:42:25.808Z,100748.73
2019-01-09T08:43:29.334Z,100750.60
2019-01-09T08:44:32.911Z,100746.25
2019-01-09T08:45:36.478Z,100744.59
2019-01-09T08:46:40.007Z,100748.47
2019-01-09T08:47:43.562Z,100754.95
2019-01-09T08:48:47.046Z,100758.50
2019-01-09T08:49:50.601Z,100762.23
2019-01-09T08:50:54.167Z,100764.66
2019-01-09T08:51:57.750Z,100764.59
2019-01-09T08:53:01.241Z,100758.52
2019-01-09T08:54:04.864Z,100761.80
2019-01-09T08:55:09.225Z,100762.52
2019-01-09T08:56:12.731Z,100764.39
2019-01-09T08:57:16.290Z,100766.81
2019-01-09T08:58:19.808Z,100763.58
2019-01-09T08:59:23.355Z,100764.14
2019-01-09T09:00:26.877Z,100765.52
2019-01-09T09:01:30.415Z,100759.61
2019-01-09T09:02:33.883Z,100775.02
2019-01-09T09:03:37.488Z,100769.52
2019-01-09T09:04:41.046Z,100771.22
2019-01-09T09:05:44.618Z,100782.55
2019-01-09T09:06:48.305Z,100773.23
2019-01-09T09:07:54.827Z,100779.79
2019-01-09T09:08:59.316Z,100774.61
2019-01-09T09:10:03.077Z,100776.64
2019-01-09T09:11:06.708Z,100787.28
2019-01-09T09:12:10.321Z,100784.77
2019-01-09T09:13:16.923Z,100780.73
2019-01-09T09:14:20.562Z,100792.75
2019-01-09T09:15:24.069Z,100791.30
2019-01-09T09:16:36.373Z,100792.30
2019-01-09T09:17:32.955Z,100791.59
2019-01-09T09:18:36.643Z,100794.70
2019-01-09T09:19:40.162Z,100801.02
2019-01-09T09:20:45.192Z,100800.13
2019-01-09T09:21:48.772Z,100798.42
2019-01-09T09:22:52.389Z,100797.94
2019-01-09T09:23:55.880Z,100799.80
2019-01-09T09:24:59.694Z,100803.93
2019-01-09T09:26:03.460Z,100806.11
2019-01-09T09:27:07.011Z,100804.49
2019-01-09T09:28:10.703Z,100807.41
2019-01-09T09:29:14.194Z,100799.56
2019-01-09T09:30:18.796Z,100803.69
2019-01-09T09:31:22.397Z,100802.31
2019-01-09T09:32:25.892Z,100803.93
2019-01-09T09:33:29.495Z,100809.19
2019-01-09T09:34:33.184Z,100801.66
2019-01-09T09:35:36.675Z,100809.92
2019-01-09T09:36:40.240Z,100799.16
2019-01-09T09:37:43.968Z,100810.65
2019-01-09T09:38:47.530Z,100808.71
2019-01-09T09:39:51.059Z,100805.80
2019-01-09T09:40:54.702Z,100810.41
2019-01-09T09:41:58.194Z,100809.03
2019-01-09T09:43:01.920Z,100804.09
2019-01-09T09:44:05.693Z,100803.04
2019-01-09T09:45:11.252Z,100802.23
2019-01-09T09:46:14.846Z,100798.42
2019-01-09T09:47:18.363Z,100808.38
2019-01-09T09:48:21.863Z,100809.27
2019-01-09T09:49:25.409Z,100809.59
2019-01-09T09:50:28.959Z,100823.42
2019-01-09T09:51:32.533Z,100818.21
2019-01-09T09:52:36.138Z,100825.73
2019-01-09T09:53:42.766Z,100825.00
2019-01-09T09:54:46.473Z,100828.12
2019-01-09T09:55:50.155Z,100817.75
2019-01-09T09:56:53.736Z,100818.37
2019-01-09T09:58:05.302Z,100825.00
2019-01-09T09:59:02.436Z,100817.14
2019-01-09T10:00:08.998Z,100824.66
2019-01-09T10:01:12.621Z,100809.36
2019-01-09T10:02:16.396Z,100813.03
2019-01-09T10:03:20.081Z,100804.05
2019-01-09T10:04:23.627Z,100820.06
2019-01-09T10:05:27.517Z,100809.70
2019-01-09T10:06:31.161Z,100810.58
2019-01-09T10:07:34.725Z,100807.31
2019-01-09T10:08:38.373Z,100801.88
2019-01-09T10:09:41.886Z,100808.19
2019-01-09T10:10:45.466Z,100811.51
2019-01-09T10:11:48.990Z,100810.70
2019-01-09T10:12:52.512Z,100805.20
2019-01-09T10:13:56.058Z,100802.52
2019-01-09T10:14:59.548Z,100814.33
2019-01-09T10:16:03.211Z,100807.77
2019-01-09T10:17:06.795Z,100814.08
2019-01-09T10:18:10.305Z,100812.46
2019-01-09T10:19:14.047Z,100814.89
2019-01-09T10:20:18.291Z,100809.39
2019-01-09T10:21:21.879Z,100807.53
2019-01-09T10:22:25.916Z,100809.71
2019-01-09T10:23:29.478Z,100816.34
2019-01-09T10:24:33.122Z,100811.16
2019-01-09T10:25:36.607Z,100813.91
2019-01-09T10:26:40.205Z,100823.84
2019-01-09T10:27:43.767Z,100823.04
2019-01-09T10:28:47.326Z,100834.35
2019-01-09T10:29:50.842Z,100820.08
2019-01-09T10:30:54.424Z,100822.02
2019-01-09T10:31:59.240Z,100818.70
2019-01-09T10:33:03.178Z,100815.95
2019-01-09T10:34:06.671Z,100813.77
2019-01-09T10:35:10.507Z,100817.61
2019-01-09T10:36:13.994Z,100815.36
2019-01-09T10:37:17.652Z,100813.09
2019-01-09T10:38:21.253Z,100818.06
2019-01-09T10:39:24.926Z,100813.89
2019-01-09T10:40:36.033Z,100816.11
2019-01-09T10:41:33.781Z,100812.92
2019-01-09T10:42:37.291Z,100811.00
2019-01-09T10:43:40.986Z,100820.67
2019-01-09T10:44:44.491Z,100809.06
2019-01-09T10:45:48.070Z,100813.96
2019-01-09T10:46:51.638Z,100816.40
2019-01-09T10:47:55.231Z,100817.00
2019-01-09T10:48:58.718Z,100821.48
2019-01-09T10:50:02.445Z,100820.11
2019-01-09T10:51:06.108Z,100813.98
2019-01-09T10:52:09.748Z,100819.81
2019-01-09T10:53:13.278Z,100819.43
2019-01-09T10:54:16.847Z,100817.47
2019-01-09T10:55:20.685Z,100815.48
2019-01-09T10:56:24.187Z,100811.37
2019-01-09T10:57:27.677Z,100811.02
2019-01-09T10:58:31.322Z,100823.75
2019-01-09T10:59:34.931Z,100813.45
2019-01-09T11:00:38.496Z,100814.08
2019-01-09T11:01:42.001Z,100807.00
2019-01-09T11:02:45.660Z,100805.14
2019-01-09T11:03:49.328Z,100798.16
2019-01-09T11:04:52.819Z,100806.43
2019-01-09T11:05:56.326Z,100802.14
2019-01-09T11:06:59.819Z,100803.52
2019-01-09T11:08:03.309Z,100818.59
2019-01-09T11:09:07.983Z,100811.23
2019-01-09T11:10:14.627Z,100811.41
2019-01-09T11:11:18.206Z,100811.50
2019-01-09T11:12:21.783Z,100805.23
2019-01-09T11:13:25.285Z,100802.91
2019-01-09T11:14:28.868Z,100803.08
2019-01-09T11:15:32.372Z,100805.17
2019-01-09T11:16:35.936Z,100812.81
2019-01-09T11:17:39.492Z,100803.34
2019-01-09T11:18:43.003Z,100816.64
2019-01-09T11:19:46.516Z,100808.38
2019-01-09T11:21:03.639Z,100825.20
2019-01-09T11:21:58.077Z,100803.91
2019-01-09T11:23:01.572Z,100812.98
2019-01-09T11:24:05.334Z,100818.50
2019-01-09T11:25:14.941Z,100816.46
2019-01-09T11:26:18.466Z,100811.43
2019-01-09T11:27:21.946Z,100816.86
2019-01-09T11:28:25.429Z,100822.12
2019-01-09T11:29:29.029Z,100818.39
2019-01-09T11:30:32.605Z,100821.33
2019-01-09T11:31:36.157Z,100816.53
2019-01-09T11:32:39.805Z,100814.73
2019-01-09T11:33:43.359Z,100810.36
2019-01-09T11:34:46.870Z,100816.50
2019-01-09T11:35:50.453Z,100806.05
2019-01-09T11:36:53.927Z,100805.38
2019-01-09T11:37:57.524Z,100818.36
2019-01-09T11:39:01.202Z,100807.42
2019-01-09T11:40:08.009Z,100804.42
2019-01-09T11:41:12.028Z,100818.55
2019-01-09T11:42:15.708Z,100812.55
2019-01-09T11:43:19.218Z,100811.73
2019-01-09T11:44:22.782Z,100805.66
2019-01-09T11:45:26.389Z,100807.99
2019-01-09T11:46:29.964Z,100805.33
2019-01-09T11:47:33.552Z,100796.91
2019-01-09T11:48:37.022Z,100799.99
2019-01-09T11:49:40.587Z,100798.53
2019-01-09T11:50:44.092Z,100794.54
2019-01-09T11:51:47.653Z,100790.82
2019-01-09T11:52:51.246Z,100787.26
2019-01-09T11:53:54.808Z,100792.26
2019-01-09T11:54:58.391Z,100798.40
2019-01-09T11:56:01.993Z,100790.54
2019-01-09T11:57:05.545Z,100789.45
2019-01-09T11:58:09.126Z,100784.41
2019-01-09T11:59:12.714Z,100784.41
2019-01-09T12:00:24.780Z,100782.22
2019-01-09T12:01:28.458Z,100782.22
2019-01-09T12:02:31.956Z,100779.80
2019-01-09T12:03:35.454Z,100776.47
2019-01-09T12:04:38.961Z,100780.61
2019-01-09T12:05:42.617Z,100774.95
2019-01-09T12:06:46.226Z,100778.61
2019-01-09T12:07:49.912Z,100780.14
2019-01-09T12:08:53.367Z,100769.68
2019-01-09T12:09:56.895Z,100763.69
2019-01-09T12:11:00.498Z,100774.00
2019-01-09T12:12:04.211Z,100776.19
2019-01-09T12:13:07.723Z,100768.97
2019-01-09T12:14:11.199Z,100773.10
2019-01-09T12:15:15.654Z,100780.56
2019-01-09T12:16:19.146Z,100790.78
2019-01-09T12:17:22.657Z,100770.44
2019-01-09T12:18:26.168Z,100771.58
2019-01-09T12:19:29.685Z,100774.24
2019-01-09T12:20:33.197Z,100769.44
2019-01-09T12:21:36.706Z,100786.32
2019-01-09T12:22:40.357Z,100781.85
2019-01-09T12:23:43.946Z,100775.05